Flight Track Log - Related Links

Times and Time Zones

All times are in EDT time to prevent confusion due to time zone crossing. See the EGF2992 flight status page for this flight to view local times or setup timezone preferences in your user account.

Time Position Orientation Groundspeed Altitude Reporting Facility
EDT Latitude Longitude Course Direction KTS MPH feet Rate Location/Type
Mon 09:20:58 PM 32.8833 -97.0333 65° Northeast 155 178 1,200  Level Dallas / Fort Worth TRACON
Mon 09:21:58 PM 32.8333 -97.0333 180° South 184 212 3,400 1,950 Climbing Dallas / Fort Worth TRACON
Mon 09:22:58 PM 32.7833 -97.0333 180° South 223 257 5,100 1,835 Climbing Dallas / Fort Worth TRACON
Mon 09:23:00 PM 32.6852 -96.7946 68° East  Level FlightAware Approximate
Mon 09:23:59 PM 32.7167 -97.0167 168° South 266 306 7,100  Level Dallas / Fort Worth TRACON
Mon 09:24:00 PM 32.7310 -96.6572 68° East  Level FlightAware Approximate
Mon 09:25:00 PM 32.7781 -96.5204 65° Northeast  Level FlightAware Approximate
Mon 09:25:31 PM 32.6922 -96.8753 102° East 302 348 9,900  Level Fort Worth Center
Mon 09:26:00 PM 32.8298 -96.3858 65° Northeast  Level FlightAware Approximate
Mon 09:26:30 PM 32.7064 -96.7789 80° East 324 373 10,200  Level Fort Worth Center
Mon 09:27:30 PM 32.7517 -96.6525 67° East 361 415 11,600 1,550 Climbing Fort Worth Center
Mon 09:28:30 PM 32.7886 -96.5486 67° East 375 432 13,300 1,850 Climbing Fort Worth Center
Mon 09:29:30 PM 32.8358 -96.4219 66° East 381 438 15,300 1,900 Climbing Fort Worth Center
Mon 09:30:30 PM 32.8661 -96.3153 71° East 375 432 17,100 1,835 Climbing Fort Worth Center
Mon 09:31:31 PM 32.8692 -96.1792 88° East 369 425 19,000 1,550 Climbing Fort Worth Center
Mon 09:32:30 PM 32.8700 -96.0606 89° East 385 443 20,200 1,261 Climbing Fort Worth Center
Mon 09:33:30 PM 32.8725 -95.9119 89° East 398 458 21,500 1,300 Climbing Fort Worth Center
Mon 09:34:30 PM 32.8750 -95.7883 89° East 409 471 22,800 1,350 Climbing Fort Worth Center
Mon 09:35:30 PM 32.8772 -95.6447 89° East 420 483 24,200 1,450 Climbing Fort Worth Center
Mon 09:36:30 PM 32.8792 -95.4889 89° East 427 491 25,700 1,450 Climbing Fort Worth Center
Mon 09:37:30 PM 32.8833 -95.3453 88° East 427 491 27,100 1,550 Climbing Fort Worth Center
Mon 09:38:30 PM 32.8997 -95.2089 82° East 420 483 28,800 1,636 Climbing Fort Worth Center
Mon 09:39:31 PM 32.9222 -95.0772 78° East 415 478 30,400 1,450 Climbing Fort Worth Center
Mon 09:40:30 PM 32.9447 -94.9428 79° East 410 472 31,700 1,210 Climbing Fort Worth Center
Mon 09:41:30 PM 32.9631 -94.8064 81° East 410 472 32,800 1,041 Climbing Fort Worth Center
Mon 09:42:31 PM 32.9831 -94.6694 80° East 415 478 33,800 1,000 Climbing Fort Worth Center
Mon 09:43:30 PM 33.0050 -94.5275 80° East 415 478 34,800 1,008 Climbing Fort Worth Center
Mon 09:44:30 PM 33.0267 -94.3856 80° East 421 484 35,800 1,000 Climbing Fort Worth Center
Mon 09:45:30 PM 33.0461 -94.2461 81° East 426 490 36,800 595 Climbing Fort Worth Center
Mon 09:46:31 PM 33.0653 -94.1019 81° East 431 496 37,000 100 Climbing Fort Worth Center
Mon 09:47:30 PM 33.0886 -93.9547 79° East 436 502 37,000  Level Fort Worth Center
Mon 09:48:30 PM 33.1092 -93.7975 81° East 457 526 37,000  Level Fort Worth Center
Mon 09:49:30 PM 33.1336 -93.6378 80° East 472 543 37,000  Level Fort Worth Center
Mon 09:50:30 PM 33.1561 -93.4856 80° East 472 543 37,000  Level Fort Worth Center
Mon 09:51:30 PM 33.1783 -93.3308 80° East 472 543 37,000  Level Fort Worth Center
Mon 09:52:31 PM 33.2003 -93.1758 80° East 472 543 37,000  Level Fort Worth Center
Mon 09:53:30 PM 33.2219 -93.0183 81° East 467 537 37,000  Level Fort Worth Center
Mon 09:54:31 PM 33.2436 -92.8633 80° East 467 537 37,000  Level Fort Worth Center
Mon 09:56:34 PM 33.2747 -92.5561 83° East 464 534 37,000  Level Memphis Center
Mon 09:57:34 PM 33.2919 -92.3953 83° East 469 540 37,000  Level Memphis Center
Mon 09:58:34 PM 33.3069 -92.2389 83° East 469 540 37,000  Level Memphis Center
Mon 09:59:34 PM 33.3219 -92.0800 84° East 475 547 37,000  Level Memphis Center
Mon 10:00:34 PM 33.3344 -91.9164 85° East 481 554 37,000  Level Memphis Center
Mon 10:01:34 PM 33.3489 -91.7547 84° East 481 554 37,000  Level Memphis Center
Mon 10:02:34 PM 33.3569 -91.5733 87° East 486 559 37,000  Level Memphis Center
Mon 10:03:34 PM 33.3731 -91.4144 83° East 486 559 37,000  Level Memphis Center
Mon 10:04:34 PM 33.3869 -91.2503 84° East 486 559 37,000  Level Memphis Center
Mon 10:05:34 PM 33.4006 -91.0914 84° East 486 559 37,000  Level Memphis Center
Mon 10:06:34 PM 33.4139 -90.9322 84° East 479 551 37,000  Level Memphis Center
Mon 10:07:34 PM 33.4269 -90.7753 84° East 479 551 37,000  Level Memphis Center
Mon 10:08:34 PM 33.4378 -90.6161 85° East 479 551 37,000  Level Memphis Center
Mon 10:09:34 PM 33.4506 -90.4567 84° East 479 551 37,000  Level Memphis Center
Mon 10:10:34 PM 33.4631 -90.2975 85° East 479 551 37,000  Level Memphis Center
Mon 10:11:34 PM 33.4669 -90.1331 88° East 479 551 37,000  Level Memphis Center
Mon 10:12:34 PM 33.4708 -89.9711 88° East 479 551 37,000  Level Memphis Center
Mon 10:13:34 PM 33.4722 -89.8069 89° East 479 551 37,000  Level Memphis Center
Mon 10:14:34 PM 33.4756 -89.6450 89° East 479 551 37,000  Level Memphis Center
Mon 10:15:34 PM 33.4767 -89.4806 89° East 484 557 37,000  Level Memphis Center
Mon 10:16:34 PM 33.4794 -89.3161 89° East 489 563 37,000  Level Memphis Center
Mon 10:17:34 PM 33.4803 -89.1517 90° East 489 563 37,000  Level Memphis Center
Mon 10:18:34 PM 33.4825 -88.9847 89° East 494 568 37,000  Level Memphis Center
Mon 10:19:34 PM 33.4847 -88.8206 89° East 494 568 37,000  Level Memphis Center
Mon 10:20:34 PM 33.4869 -88.6536 89° East 494 568 37,000  Level Memphis Center
Mon 10:21:34 PM 33.4908 -88.4917 88° East 494 568 37,000  Level Memphis Center
Mon 10:23:17 PM 33.5189 -88.2122 83° East 476 548 37,000  Level Atlanta Center
Mon 10:24:17 PM 33.5389 -88.0539 81° East 476 548 37,000  Level Atlanta Center
Mon 10:25:17 PM 33.5564 -87.8975 82° East 481 554 37,000  Level Atlanta Center
Mon 10:26:17 PM 33.5758 -87.7364 82° East 481 554 37,000  Level Atlanta Center
Mon 10:27:17 PM 33.5908 -87.5897 83° East 481 554 37,000  Level Atlanta Center
Mon 10:28:17 PM 33.6097 -87.4336 82° East 481 554 37,000  Level Atlanta Center
Mon 10:29:17 PM 33.6286 -87.2772 82° East 481 554 37,000  Level Atlanta Center
Mon 10:30:17 PM 33.6453 -87.1181 83° East 481 554 37,000  Level Atlanta Center
Mon 10:31:17 PM 33.6636 -86.9564 82° East 481 554 37,000  Level Atlanta Center
Mon 10:32:17 PM 33.6694 -86.7969 87° East 476 548 37,000  Level Atlanta Center
Mon 10:33:17 PM 33.6667 -86.6347 91° East 476 548 37,000  Level Atlanta Center
Mon 10:34:17 PM 33.6658 -86.4722 90° East 476 548 37,000  Level Atlanta Center
Mon 10:35:17 PM 33.6628 -86.3125 91° East 476 548 37,000  Level Atlanta Center
Mon 10:36:17 PM 33.6614 -86.1478 91° East 482 555 37,000  Level Atlanta Center
Mon 10:37:17 PM 33.6600 -85.9856 91° East 482 555 37,000  Level Atlanta Center
Mon 10:38:17 PM 33.6583 -85.8233 91° East 482 555 37,000  Level Atlanta Center
Mon 10:39:17 PM 33.6586 -85.6461 90° East 475 547 37,000  Level Atlanta Center
Mon 10:40:17 PM 33.6542 -85.4864 92° East 475 547 37,000  Level Atlanta Center
Mon 10:41:17 PM 33.6497 -85.3239 92° East 480 552 37,000  Level Atlanta Center
Mon 10:42:17 PM 33.6472 -85.1617 91° East 480 552 37,000  Level Atlanta Center
Mon 10:43:17 PM 33.6422 -84.9969 92° East 480 552 37,000  Level Atlanta Center
Mon 10:44:17 PM 33.6394 -84.8322 91° East 480 552 37,000  Level Atlanta Center
Mon 10:45:17 PM 33.6361 -84.6725 91° East 480 552 37,000  Level Atlanta Center
Mon 10:46:17 PM 33.6264 -84.5128 94° East 480 552 37,000  Level Atlanta Center
Mon 10:47:17 PM 33.6331 -84.3456 87° East 480 552 37,000  Level Atlanta Center
Mon 10:48:17 PM 33.6375 -84.1811 88° East 480 552 37,000  Level Atlanta Center
Mon 10:49:17 PM 33.6461 -84.0214 86° East 487 560 37,000  Level Atlanta Center
Mon 10:50:17 PM 33.6542 -83.8567 87° East 487 560 37,000  Level Atlanta Center
Mon 10:51:17 PM 33.6603 -83.6944 87° East 487 560 37,000  Level Atlanta Center
Mon 10:52:17 PM 33.6639 -83.5347 88° East 487 560 37,000  Level Atlanta Center
Mon 10:53:17 PM 33.6714 -83.3672 87° East 482 555 37,000  Level Atlanta Center
Mon 10:54:17 PM 33.6642 -83.2053 93° East 482 555 37,000  Level Atlanta Center
Mon 10:55:17 PM 33.6589 -83.0606 92° East 482 555 37,000  Level Atlanta Center
Mon 10:56:17 PM 33.6511 -82.8958 93° East 487 560 37,000 -200 Level Atlanta Center
Mon 10:57:17 PM 33.6411 -82.7339 94° East 487 560 36,600 -700 Descending Atlanta Center
Mon 10:58:17 PM 33.6372 -82.5692 92° East 487 560 35,600 -950 Descending Atlanta Center
Mon 10:59:17 PM 33.6247 -82.4072 95° East 487 560 34,700 -1,072 Descending Atlanta Center
Mon 11:01:44 PM 33.6017 -81.9947 94° East 479 551 31,900 -1,125 Descending Jacksonville Center
Mon 11:02:45 PM 33.5942 -81.8578 94° East 472 543 30,800 -1,190 Descending Jacksonville Center
Mon 11:03:45 PM 33.5658 -81.7086 103° East 465 535 29,500 -1,513 Descending Jacksonville Center
Mon 11:04:44 PM 33.5164 -81.5547 111° Southeast 465 535 27,800 -1,700 Descending Jacksonville Center
Mon 11:05:45 PM 33.4686 -81.4086 111° Southeast 481 554 26,100 -1,800 Descending Jacksonville Center
Mon 11:06:44 PM 33.4189 -81.2550 111° Southeast 468 539 24,200 -2,168 Descending Jacksonville Center
Mon 11:07:44 PM 33.3753 -81.1192 111° Southeast 449 517 21,800 -2,450 Descending Jacksonville Center
Mon 11:08:44 PM 33.3336 -80.9833 110° East 436 502 19,300 -2,430 Descending Jacksonville Center
Mon 11:09:45 PM 33.2897 -80.8525 112° Southeast 436 502 16,900 -2,700 Descending Jacksonville Center
Mon 11:10:44 PM 33.2503 -80.7267 111° Southeast 423 487 13,900 -2,723 Descending Jacksonville Center
Mon 11:11:44 PM 33.2106 -80.6086 112° Southeast 400 460 11,500 -1,750 Descending Jacksonville Center
Mon 11:12:44 PM 33.1489 -80.5456 139° Southeast 336 387 10,400 -1,400 Descending Jacksonville Center
Mon 11:13:44 PM 33.0853 -80.4878 143° Southeast 314 361 8,700 -1,450 Descending Jacksonville Center
Mon 11:14:44 PM 33.0214 -80.4300 143° Southeast 301 346 7,500 -1,200 Descending Jacksonville Center
Mon 11:15:44 PM 32.9619 -80.3747 142° Southeast 290 334 6,300 -1,400 Descending Jacksonville Center
Mon 11:16:44 PM 32.9228 -80.3017 123° Southeast 266 306 4,700 -1,600 Descending Jacksonville Center
Mon 11:17:44 PM 32.8881 -80.2283 119° Southeast 266 306 3,100 -1,600 Descending Jacksonville Center

Login

Don't have an account? Register now (free) for customized features, flight alerts, and more!